createdAt,value
2023-04-20T00:02:03.277Z,20.60
2023-04-20T00:06:05.533Z,16.08
2023-04-20T00:10:08.783Z,21.88
2023-04-20T00:14:10.234Z,19.88
2023-04-20T00:18:11.782Z,16.85
2023-04-20T00:22:19.983Z,17.58
2023-04-20T00:26:21.469Z,17.40
2023-04-20T00:30:23.215Z,17.98
2023-04-20T00:34:24.655Z,16.27
2023-04-20T00:38:26.164Z,17.92
2023-04-20T00:42:27.647Z,15.30
2023-04-20T00:46:29.223Z,14.88
2023-04-20T00:50:30.944Z,14.95
2023-04-20T00:54:32.858Z,14.23
2023-04-20T00:58:34.390Z,18.77
2023-04-20T01:02:36.035Z,15.05
2023-04-20T01:06:38.327Z,14.88
2023-04-20T01:10:39.753Z,15.45
2023-04-20T01:14:41.169Z,16.33
2023-04-20T01:18:48.679Z,14.45
2023-04-20T01:22:51.796Z,16.80
2023-04-20T01:26:53.313Z,15.00
2023-04-20T01:30:54.771Z,17.13
2023-04-20T01:34:56.226Z,19.75
2023-04-20T01:38:58.376Z,22.73
2023-04-20T01:42:59.850Z,16.83
2023-04-20T01:47:01.551Z,21.65
2023-04-20T01:51:03.183Z,19.63
2023-04-20T01:55:05.215Z,18.48
2023-04-20T01:59:06.622Z,20.02
2023-04-20T02:03:08.154Z,22.58
2023-04-20T02:07:09.748Z,22.77
2023-04-20T02:11:11.176Z,21.50
2023-04-20T02:15:12.638Z,18.77
2023-04-20T02:19:14.129Z,20.25
2023-04-20T02:23:15.831Z,19.60
2023-04-20T02:27:17.255Z,23.80
2023-04-20T02:31:19.047Z,19.65
2023-04-20T02:35:20.796Z,19.08
2023-04-20T02:39:24.983Z,18.00
2023-04-20T02:43:26.403Z,16.85
2023-04-20T02:47:27.859Z,14.63
2023-04-20T02:51:29.616Z,17.20
2023-04-20T02:55:31.209Z,18.25
2023-04-20T02:59:32.669Z,18.88
2023-04-20T03:03:34.269Z,16.10
2023-04-20T03:07:36.034Z,18.38
2023-04-20T03:11:37.475Z,19.83
2023-04-20T03:15:39.177Z,19.05
2023-04-20T03:19:41.651Z,19.77
2023-04-20T03:23:43.071Z,21.83
2023-04-20T03:27:46.598Z,23.27
2023-04-20T03:31:48.189Z,22.52
2023-04-20T03:35:49.615Z,19.55
2023-04-20T03:39:51.053Z,20.38
2023-04-20T03:43:52.495Z,20.63
2023-04-20T03:47:54.084Z,19.35
2023-04-20T03:51:55.498Z,23.85
2023-04-20T03:55:57.068Z,17.92
2023-04-20T03:59:58.489Z,19.08
2023-04-20T04:04:00.202Z,15.77
2023-04-20T04:08:02.104Z,21.08
2023-04-20T04:12:05.248Z,21.77
2023-04-20T04:16:06.871Z,19.20
2023-04-20T04:20:09.134Z,22.38
2023-04-20T04:24:10.583Z,20.40
2023-04-20T04:28:12.513Z,21.15
2023-04-20T04:32:14.001Z,22.63
2023-04-20T04:36:15.777Z,21.95
2023-04-20T04:40:18.182Z,20.23
2023-04-20T04:44:19.805Z,22.70
2023-04-20T04:48:21.259Z,24.48
2023-04-20T04:52:22.877Z,24.42
2023-04-20T04:56:24.684Z,24.80
2023-04-20T05:00:26.112Z,28.88
2023-04-20T05:04:27.608Z,31.80
2023-04-20T05:08:29.124Z,28.15
2023-04-20T05:12:30.524Z,24.42
2023-04-20T05:16:32.019Z,29.48
2023-04-20T05:20:33.540Z,27.50
2023-04-20T05:24:35.122Z,34.20
2023-04-20T05:28:37.069Z,29.08
2023-04-20T05:32:38.475Z,27.25
2023-04-20T05:36:41.232Z,33.33
2023-04-20T05:40:42.709Z,30.67
2023-04-20T05:44:44.244Z,30.88
2023-04-20T05:48:46.000Z,28.15
2023-04-20T05:52:47.432Z,29.70
2023-04-20T05:56:51.232Z,27.17
2023-04-20T06:00:52.902Z,31.95
2023-04-20T06:04:54.458Z,30.58
2023-04-20T06:08:58.085Z,28.08
2023-04-20T06:12:59.547Z,27.10
2023-04-20T06:17:00.939Z,30.98
2023-04-20T06:21:03.221Z,29.73
2023-04-20T06:25:04.929Z,28.17
2023-04-20T06:29:06.378Z,31.42
2023-04-20T06:33:09.165Z,24.33
2023-04-20T06:37:11.676Z,24.33
2023-04-20T06:41:13.138Z,25.30
2023-04-20T06:45:14.644Z,27.80
2023-04-20T06:49:16.293Z,27.02
2023-04-20T06:53:18.112Z,23.88
2023-04-20T06:57:19.744Z,28.10
2023-04-20T07:01:21.720Z,24.98
2023-04-20T07:05:23.657Z,23.48
2023-04-20T07:09:25.123Z,25.92
2023-04-20T07:13:26.550Z,22.77
2023-04-20T07:17:28.187Z,26.80
2023-04-20T07:21:31.615Z,25.42
2023-04-20T07:25:33.049Z,26.73
2023-04-20T07:29:34.524Z,25.08
2023-04-20T07:33:36.201Z,23.02
2023-04-20T07:37:37.622Z,21.92
2023-04-20T07:41:39.033Z,22.13
2023-04-20T07:45:41.771Z,24.35
2023-04-20T07:49:43.931Z,20.63
2023-04-20T07:53:45.365Z,21.88
2023-04-20T07:57:46.992Z,19.50
2023-04-20T08:01:48.505Z,22.25
2023-04-20T08:05:50.000Z,19.65
2023-04-20T08:09:51.696Z,22.60
2023-04-20T08:13:53.118Z,23.25
2023-04-20T08:17:54.633Z,16.55
2023-04-20T08:21:56.348Z,15.73
2023-04-20T08:25:58.026Z,17.25
2023-04-20T08:29:59.482Z,16.27
2023-04-20T08:34:01.371Z,18.90
2023-04-20T08:38:02.841Z,16.30
2023-04-20T08:42:04.330Z,15.45
2023-04-20T08:46:06.007Z,17.23
2023-04-20T08:50:09.046Z,20.27
2023-04-20T08:54:11.419Z,19.00
2023-04-20T08:58:13.056Z,15.52
2023-04-20T09:02:14.860Z,16.23
2023-04-20T09:06:18.380Z,15.20
2023-04-20T09:10:19.911Z,16.38
2023-04-20T09:14:21.372Z,12.85
2023-04-20T09:18:24.662Z,15.35
2023-04-20T09:22:33.536Z,15.93
2023-04-20T09:26:36.097Z,14.50
2023-04-20T09:30:49.157Z,16.52
2023-04-20T09:34:50.885Z,15.63
2023-04-20T09:39:03.727Z,16.55
2023-04-20T09:43:18.099Z,15.02
2023-04-20T09:47:20.012Z,18.98
2023-04-20T09:51:24.318Z,15.52
2023-04-20T09:55:26.611Z,18.50
2023-04-20T09:59:28.845Z,22.30
2023-04-20T10:03:30.604Z,19.10
2023-04-20T10:07:33.107Z,18.38
2023-04-20T10:11:49.026Z,18.77
2023-04-20T10:15:54.427Z,17.40
2023-04-20T10:19:55.928Z,14.98
2023-04-20T10:23:58.973Z,14.20
2023-04-20T10:28:04.698Z,15.43
2023-04-20T10:32:06.227Z,14.20
2023-04-20T10:36:07.695Z,15.27
2023-04-20T10:40:10.580Z,14.55
2023-04-20T10:44:12.017Z,14.32
2023-04-20T10:48:15.997Z,13.95
2023-04-20T10:52:31.678Z,13.80
2023-04-20T10:56:40.668Z,13.27
2023-04-20T11:00:42.112Z,12.95
2023-04-20T11:04:43.661Z,12.25
2023-04-20T11:08:45.185Z,11.80
2023-04-20T11:12:46.948Z,14.85
2023-04-20T11:16:53.231Z,13.70
2023-04-20T11:20:56.266Z,11.88
2023-04-20T11:25:09.224Z,14.95
2023-04-20T11:29:10.700Z,14.45
2023-04-20T11:33:13.988Z,13.57
2023-04-20T11:37:15.710Z,14.15
2023-04-20T11:41:18.071Z,14.23
2023-04-20T11:45:21.808Z,15.82
2023-04-20T11:49:25.143Z,12.63
2023-04-20T11:53:26.784Z,14.48
2023-04-20T11:57:28.284Z,14.25
2023-04-20T12:01:30.045Z,12.30
2023-04-20T12:05:31.536Z,14.90
2023-04-20T12:09:38.336Z,13.10
2023-04-20T12:13:39.863Z,14.55
2023-04-20T12:17:41.343Z,12.75
2023-04-20T12:21:43.311Z,12.70
2023-04-20T12:25:44.939Z,13.65
2023-04-20T12:29:46.449Z,15.80
2023-04-20T12:33:47.877Z,15.93
2023-04-20T12:37:49.292Z,12.85
2023-04-20T12:41:50.810Z,15.02
2023-04-20T12:45:52.305Z,14.48
2023-04-20T12:49:55.222Z,13.07
2023-04-20T12:53:56.674Z,15.23
2023-04-20T12:57:58.155Z,12.90
2023-04-20T13:01:59.658Z,12.90
2023-04-20T13:06:01.658Z,13.40
2023-04-20T13:10:03.941Z,14.13
2023-04-20T13:14:05.724Z,12.35
2023-04-20T13:18:07.479Z,13.85
2023-04-20T13:22:08.947Z,10.52
2023-04-20T13:26:10.491Z,11.05
2023-04-20T13:30:12.693Z,11.30
2023-04-20T13:34:14.463Z,11.35
2023-04-20T13:38:16.068Z,11.70
2023-04-20T13:42:17.515Z,13.27
2023-04-20T13:46:20.152Z,12.48
2023-04-20T13:50:21.813Z,13.68
2023-04-20T13:54:23.240Z,13.18
2023-04-20T13:58:24.711Z,12.82
2023-04-20T14:02:27.388Z,11.73
2023-04-20T14:06:29.107Z,12.73
2023-04-20T14:10:30.636Z,12.55
2023-04-20T14:14:32.151Z,14.80
2023-04-20T14:18:33.657Z,11.10
2023-04-20T14:22:36.635Z,12.13
2023-04-20T14:26:38.123Z,13.00
2023-04-20T14:30:39.617Z,12.30
2023-04-20T14:34:41.184Z,11.70
2023-04-20T14:38:42.687Z,11.40
2023-04-20T14:42:45.031Z,13.80
2023-04-20T14:46:46.589Z,12.75
2023-04-20T14:50:48.210Z,15.45
2023-04-20T14:54:49.673Z,13.48
2023-04-20T14:58:51.249Z,10.00
2023-04-20T15:02:53.589Z,12.77
2023-04-20T15:06:55.205Z,10.45
2023-04-20T15:10:56.733Z,13.48
2023-04-20T15:14:58.173Z,13.38
2023-04-20T15:18:59.618Z,13.43
2023-04-20T15:23:01.032Z,11.63
2023-04-20T15:27:03.959Z,12.65
2023-04-20T15:31:07.951Z,9.60
2023-04-20T15:35:09.624Z,8.52
2023-04-20T15:39:11.446Z,9.80
2023-04-20T15:43:12.921Z,7.97
2023-04-20T15:47:15.328Z,9.52
2023-04-20T15:51:17.604Z,12.70
2023-04-20T15:55:19.058Z,11.35
2023-04-20T15:59:20.733Z,8.95
2023-04-20T16:03:22.337Z,7.43
2023-04-20T16:07:23.823Z,8.27
2023-04-20T16:11:25.258Z,7.57
2023-04-20T16:15:26.831Z,9.80
2023-04-20T16:19:28.668Z,9.75
2023-04-20T16:23:31.292Z,8.07
2023-04-20T16:27:33.192Z,8.77
2023-04-20T16:31:36.658Z,9.32
2023-04-20T16:35:38.201Z,10.95
2023-04-20T16:39:40.474Z,8.45
2023-04-20T16:43:41.939Z,11.23
2023-04-20T16:47:43.530Z,7.93
2023-04-20T16:51:45.029Z,10.43
2023-04-20T16:55:46.541Z,9.48
2023-04-20T16:59:48.025Z,6.50
2023-04-20T17:03:49.547Z,8.88
2023-04-20T17:07:51.068Z,8.88
2023-04-20T17:11:52.735Z,8.73
2023-04-20T17:15:54.197Z,8.43
2023-04-20T17:19:55.931Z,7.53
2023-04-20T17:23:57.482Z,9.48
2023-04-20T17:27:58.952Z,9.45
2023-04-20T17:32:00.660Z,13.15
2023-04-20T17:36:02.142Z,6.97
2023-04-20T17:40:05.044Z,7.88
2023-04-20T17:44:06.524Z,7.63
2023-04-20T17:48:08.993Z,8.35
2023-04-20T17:52:14.811Z,13.50
2023-04-20T17:56:16.331Z,24.85
2023-04-20T18:00:18.639Z,15.65
2023-04-20T18:04:21.124Z,10.65
2023-04-20T18:08:23.563Z,11.45
2023-04-20T18:12:25.093Z,9.57
2023-04-20T18:16:26.804Z,10.55
2023-04-20T18:20:29.943Z,11.93
2023-04-20T18:24:33.864Z,10.88
2023-04-20T18:28:35.638Z,15.73
2023-04-20T18:32:38.357Z,10.52
2023-04-20T18:36:40.548Z,11.85
2023-04-20T18:40:42.032Z,9.43
2023-04-20T18:44:43.605Z,12.88
2023-04-20T18:48:45.057Z,13.50
2023-04-20T18:52:46.617Z,11.40
2023-04-20T18:56:50.639Z,12.10
2023-04-20T19:00:52.166Z,15.00
2023-04-20T19:04:53.731Z,11.82
2023-04-20T19:08:55.882Z,11.40
2023-04-20T19:12:57.491Z,9.65
2023-04-20T19:16:59.163Z,13.38
2023-04-20T19:21:00.771Z,11.60
2023-04-20T19:25:02.360Z,8.95
2023-04-20T19:29:04.137Z,12.00
2023-04-20T19:33:06.029Z,13.55
2023-04-20T19:37:07.600Z,12.85
2023-04-20T19:41:09.890Z,10.00
2023-04-20T19:45:11.800Z,13.98
2023-04-20T19:49:13.367Z,8.57
2023-04-20T19:53:15.709Z,10.00
2023-04-20T19:57:17.149Z,8.55
2023-04-20T20:01:19.308Z,10.23
2023-04-20T20:05:20.818Z,12.48
2023-04-20T20:09:24.199Z,10.85
2023-04-20T20:13:26.401Z,9.68
2023-04-20T20:17:27.965Z,9.25
2023-04-20T20:21:29.749Z,14.52
2023-04-20T20:25:35.071Z,12.35
2023-04-20T20:29:36.888Z,16.25
2023-04-20T20:33:38.359Z,11.70
2023-04-20T20:37:41.113Z,12.52
2023-04-20T20:41:46.533Z,11.77
2023-04-20T20:45:48.000Z,8.93
2023-04-20T20:49:49.542Z,9.65
2023-04-20T20:53:50.993Z,11.30
2023-04-20T20:57:52.628Z,14.25
2023-04-20T21:01:54.332Z,12.50
2023-04-20T21:05:55.807Z,13.77
2023-04-20T21:09:57.245Z,9.88
2023-04-20T21:14:01.801Z,15.65
2023-04-20T21:18:03.840Z,11.70
2023-04-20T21:22:05.491Z,9.73
2023-04-20T21:26:06.918Z,10.48
2023-04-20T21:30:11.431Z,11.20
2023-04-20T21:34:13.282Z,10.65
2023-04-20T21:38:14.757Z,9.18
2023-04-20T21:42:16.438Z,13.43
2023-04-20T21:46:18.057Z,14.95
2023-04-20T21:50:19.688Z,10.63
2023-04-20T21:54:21.188Z,13.50
2023-04-20T21:58:22.663Z,12.75
2023-04-20T22:02:24.234Z,13.00
2023-04-20T22:06:25.758Z,12.70
2023-04-20T22:10:28.014Z,14.18
2023-04-20T22:14:29.594Z,13.00
2023-04-20T22:18:31.046Z,13.65
2023-04-20T22:22:32.936Z,8.40
2023-04-20T22:26:34.518Z,12.60
2023-04-20T22:30:36.266Z,14.65
2023-04-20T22:34:37.807Z,11.00
2023-04-20T22:38:39.358Z,11.63
2023-04-20T22:42:40.922Z,10.57
2023-04-20T22:46:42.482Z,21.95
2023-04-20T22:50:43.942Z,9.80
2023-04-20T22:54:48.176Z,10.45
2023-04-20T22:58:49.863Z,14.48
2023-04-20T23:02:51.578Z,8.20
2023-04-20T23:06:55.972Z,10.60
2023-04-20T23:10:57.442Z,11.82
2023-04-20T23:15:02.090Z,9.95
2023-04-20T23:19:03.550Z,9.82
2023-04-20T23:23:07.402Z,11.52
2023-04-20T23:27:08.846Z,15.15
2023-04-20T23:31:10.323Z,11.25
2023-04-20T23:35:12.204Z,13.88
2023-04-20T23:39:13.647Z,14.65
2023-04-20T23:43:15.309Z,10.23
2023-04-20T23:47:18.135Z,15.10
2023-04-20T23:51:19.558Z,13.60
2023-04-20T23:55:21.060Z,8.90
2023-04-20T23:59:22.523Z,11.32
